sensor_id;sensor_type;location;lat;lon;timestamp;pressure;altitude;pressure_sealevel;temperature;humidity
61488;BME280;47351;53.326;-6.298;2022-07-12T00:01:52;101584.59;;;21.34;46.37
61488;BME280;47351;53.326;-6.298;2022-07-12T00:04:24;101585.04;;;21.32;46.61
61488;BME280;47351;53.326;-6.298;2022-07-12T00:06:56;101589.82;;;21.29;46.64
61488;BME280;47351;53.326;-6.298;2022-07-12T00:09:27;101594.42;;;21.24;46.91
61488;BME280;47351;53.326;-6.298;2022-07-12T00:11:59;101597.43;;;21.21;47.06
61488;BME280;47351;53.326;-6.298;2022-07-12T00:14:30;101598.89;;;21.19;47.11
61488;BME280;47351;53.326;-6.298;2022-07-12T00:17:02;101595.21;;;21.19;47.30
61488;BME280;47351;53.326;-6.298;2022-07-12T00:19:34;101591.52;;;21.18;47.45
61488;BME280;47351;53.326;-6.298;2022-07-12T00:22:08;101591.89;;;21.18;47.76
61488;BME280;47351;53.326;-6.298;2022-07-12T00:24:39;101590.76;;;21.15;48.12
61488;BME280;47351;53.326;-6.298;2022-07-12T00:27:11;101591.77;;;21.12;48.34
61488;BME280;47351;53.326;-6.298;2022-07-12T00:29:45;101597.37;;;21.08;48.59
61488;BME280;47351;53.326;-6.298;2022-07-12T00:32:19;101587.97;;;21.05;48.80
61488;BME280;47351;53.326;-6.298;2022-07-12T00:34:53;101589.02;;;21.02;48.85
61488;BME280;47351;53.326;-6.298;2022-07-12T00:37:24;101582.69;;;21.01;49.12
61488;BME280;47351;53.326;-6.298;2022-07-12T00:39:56;101578.25;;;21.00;49.24
61488;BME280;47351;53.326;-6.298;2022-07-12T00:42:35;101577.82;;;20.98;49.18
61488;BME280;47351;53.326;-6.298;2022-07-12T00:45:10;101579.41;;;20.97;49.16
61488;BME280;47351;53.326;-6.298;2022-07-12T00:47:53;101584.98;;;20.96;49.25
61488;BME280;47351;53.326;-6.298;2022-07-12T00:50:25;101583.64;;;20.94;49.25
61488;BME280;47351;53.326;-6.298;2022-07-12T00:52:56;101589.95;;;20.93;49.30
61488;BME280;47351;53.326;-6.298;2022-07-12T00:55:28;101595.83;;;20.93;49.29
61488;BME280;47351;53.326;-6.298;2022-07-12T00:58:00;101596.02;;;20.90;49.33
61488;BME280;47351;53.326;-6.298;2022-07-12T01:00:31;101595.77;;;20.89;49.39
61488;BME280;47351;53.326;-6.298;2022-07-12T01:03:23;101593.47;;;20.88;49.37
61488;BME280;47351;53.326;-6.298;2022-07-12T01:05:55;101591.58;;;20.89;49.37
61488;BME280;47351;53.326;-6.298;2022-07-12T01:08:26;101590.36;;;20.89;49.38
61488;BME280;47351;53.326;-6.298;2022-07-12T01:10:59;101596.23;;;20.88;49.42
61488;BME280;47351;53.326;-6.298;2022-07-12T01:13:31;101602.55;;;20.89;49.41
61488;BME280;47351;53.326;-6.298;2022-07-12T01:16:03;101593.75;;;20.89;49.41
61488;BME280;47351;53.326;-6.298;2022-07-12T01:18:35;101597.23;;;20.89;49.43
61488;BME280;47351;53.326;-6.298;2022-07-12T01:21:09;101614.45;;;20.89;49.44
61488;BME280;47351;53.326;-6.298;2022-07-12T01:23:41;101623.50;;;20.88;49.52
61488;BME280;47351;53.326;-6.298;2022-07-12T01:26:13;101615.98;;;20.87;49.51
61488;BME280;47351;53.326;-6.298;2022-07-12T01:28:44;101602.45;;;20.86;49.55
61488;BME280;47351;53.326;-6.298;2022-07-12T01:31:16;101606.77;;;20.87;49.70
61488;BME280;47351;53.326;-6.298;2022-07-12T01:33:48;101604.93;;;20.87;49.71
61488;BME280;47351;53.326;-6.298;2022-07-12T01:36:20;101604.75;;;20.87;49.64
61488;BME280;47351;53.326;-6.298;2022-07-12T01:38:52;101606.56;;;20.87;49.68
61488;BME280;47351;53.326;-6.298;2022-07-12T01:41:24;101602.04;;;20.87;49.70
61488;BME280;47351;53.326;-6.298;2022-07-12T01:43:56;101598.63;;;20.87;49.79
61488;BME280;47351;53.326;-6.298;2022-07-12T01:46:27;101601.70;;;20.85;49.77
61488;BME280;47351;53.326;-6.298;2022-07-12T01:48:59;101598.67;;;20.83;49.92
61488;BME280;47351;53.326;-6.298;2022-07-12T01:51:32;101612.28;;;20.81;50.06
61488;BME280;47351;53.326;-6.298;2022-07-12T01:54:04;101613.91;;;20.79;50.29
61488;BME280;47351;53.326;-6.298;2022-07-12T01:56:37;101604.72;;;20.76;50.61
61488;BME280;47351;53.326;-6.298;2022-07-12T01:59:08;101616.73;;;20.73;50.83
61488;BME280;47351;53.326;-6.298;2022-07-12T02:01:39;101625.71;;;20.70;51.05
61488;BME280;47351;53.326;-6.298;2022-07-12T02:04:11;101636.74;;;20.66;51.25
61488;BME280;47351;53.326;-6.298;2022-07-12T02:06:42;101637.32;;;20.63;51.74
61488;BME280;47351;53.326;-6.298;2022-07-12T02:09:15;101631.98;;;20.58;52.30
61488;BME280;47351;53.326;-6.298;2022-07-12T02:11:48;101641.92;;;20.54;52.72
61488;BME280;47351;53.326;-6.298;2022-07-12T02:14:20;101644.09;;;20.50;53.17
61488;BME280;47351;53.326;-6.298;2022-07-12T02:16:52;101644.23;;;20.47;53.48
61488;BME280;47351;53.326;-6.298;2022-07-12T02:19:23;101643.02;;;20.44;53.93
61488;BME280;47351;53.326;-6.298;2022-07-12T02:21:55;101633.16;;;20.42;54.27
61488;BME280;47351;53.326;-6.298;2022-07-12T02:24:26;101634.20;;;20.41;54.47
61488;BME280;47351;53.326;-6.298;2022-07-12T02:26:58;101633.14;;;20.37;54.50
61488;BME280;47351;53.326;-6.298;2022-07-12T02:29:29;101634.94;;;20.36;54.79
61488;BME280;47351;53.326;-6.298;2022-07-12T02:32:02;101624.77;;;20.36;54.89
61488;BME280;47351;53.326;-6.298;2022-07-12T02:34:33;101621.52;;;20.36;55.17
61488;BME280;47351;53.326;-6.298;2022-07-12T02:37:05;101630.67;;;20.37;55.82
61488;BME280;47351;53.326;-6.298;2022-07-12T02:39:36;101645.90;;;20.37;55.95
61488;BME280;47351;53.326;-6.298;2022-07-12T02:42:08;101646.15;;;20.36;56.03
61488;BME280;47351;53.326;-6.298;2022-07-12T02:44:39;101641.97;;;20.38;56.57
61488;BME280;47351;53.326;-6.298;2022-07-12T02:47:11;101645.58;;;20.40;57.06
61488;BME280;47351;53.326;-6.298;2022-07-12T02:49:42;101645.92;;;20.41;57.38
61488;BME280;47351;53.326;-6.298;2022-07-12T02:52:13;101629.80;;;20.40;57.84
61488;BME280;47351;53.326;-6.298;2022-07-12T02:54:45;101625.03;;;20.38;58.46
61488;BME280;47351;53.326;-6.298;2022-07-12T02:57:26;101626.92;;;20.34;58.83
61488;BME280;47351;53.326;-6.298;2022-07-12T02:59:58;101618.08;;;20.29;59.26
61488;BME280;47351;53.326;-6.298;2022-07-12T03:02:42;101638.66;;;20.24;59.82
61488;BME280;47351;53.326;-6.298;2022-07-12T03:05:14;101642.48;;;20.20;60.38
61488;BME280;47351;53.326;-6.298;2022-07-12T03:07:46;101644.97;;;20.16;60.77
61488;BME280;47351;53.326;-6.298;2022-07-12T03:10:18;101651.80;;;20.07;60.90
61488;BME280;47351;53.326;-6.298;2022-07-12T03:12:50;101664.33;;;19.94;60.71
61488;BME280;47351;53.326;-6.298;2022-07-12T03:15:24;101666.37;;;19.82;60.69
61488;BME280;47351;53.326;-6.298;2022-07-12T03:17:56;101649.58;;;19.74;60.72
61488;BME280;47351;53.326;-6.298;2022-07-12T03:20:30;101662.79;;;19.66;60.81
61488;BME280;47351;53.326;-6.298;2022-07-12T03:23:07;101672.55;;;19.58;60.84
61488;BME280;47351;53.326;-6.298;2022-07-12T03:25:42;101671.02;;;19.51;61.18
61488;BME280;47351;53.326;-6.298;2022-07-12T03:28:17;101670.77;;;19.48;61.42
61488;BME280;47351;53.326;-6.298;2022-07-12T03:30:48;101663.80;;;19.44;61.76
61488;BME280;47351;53.326;-6.298;2022-07-12T03:33:29;101656.02;;;19.39;62.11
61488;BME280;47351;53.326;-6.298;2022-07-12T03:36:06;101653.27;;;19.35;62.82
61488;BME280;47351;53.326;-6.298;2022-07-12T03:38:41;101659.92;;;19.29;62.98
61488;BME280;47351;53.326;-6.298;2022-07-12T03:41:13;101657.97;;;19.17;62.95
61488;BME280;47351;53.326;-6.298;2022-07-12T03:43:48;101662.59;;;19.06;63.10
61488;BME280;47351;53.326;-6.298;2022-07-12T03:46:22;101664.70;;;18.94;63.19
61488;BME280;47351;53.326;-6.298;2022-07-12T03:48:57;101650.91;;;18.86;63.63
61488;BME280;47351;53.326;-6.298;2022-07-12T03:51:40;101647.71;;;18.83;64.72
61488;BME280;47351;53.326;-6.298;2022-07-12T03:54:30;101655.80;;;18.79;64.97
61488;BME280;47351;53.326;-6.298;2022-07-12T03:57:05;101645.63;;;18.72;65.05
61488;BME280;47351;53.326;-6.298;2022-07-12T03:59:47;101647.80;;;18.67;65.56
61488;BME280;47351;53.326;-6.298;2022-07-12T04:02:21;101648.10;;;18.62;65.75
61488;BME280;47351;53.326;-6.298;2022-07-12T04:05:02;101641.64;;;18.56;66.15
61488;BME280;47351;53.326;-6.298;2022-07-12T04:07:39;101641.11;;;18.51;66.73
61488;BME280;47351;53.326;-6.298;2022-07-12T04:10:25;101641.96;;;18.45;66.95
61488;BME280;47351;53.326;-6.298;2022-07-12T04:12:59;101640.52;;;18.41;67.17
61488;BME280;47351;53.326;-6.298;2022-07-12T04:15:30;101638.65;;;18.36;67.39
61488;BME280;47351;53.326;-6.298;2022-07-12T04:18:31;101630.74;;;18.31;67.56
61488;BME280;47351;53.326;-6.298;2022-07-12T04:21:14;101625.30;;;18.26;67.88
61488;BME280;47351;53.326;-6.298;2022-07-12T04:23:51;101622.62;;;18.23;68.06
61488;BME280;47351;53.326;-6.298;2022-07-12T04:26:30;101617.98;;;18.20;68.20
61488;BME280;47351;53.326;-6.298;2022-07-12T04:29:04;101606.78;;;18.17;68.17
61488;BME280;47351;53.326;-6.298;2022-07-12T04:31:36;101598.61;;;18.16;68.20
61488;BME280;47351;53.326;-6.298;2022-07-12T04:34:07;101594.98;;;18.16;68.50
61488;BME280;47351;53.326;-6.298;2022-07-12T04:37:01;101592.11;;;18.16;68.62
61488;BME280;47351;53.326;-6.298;2022-07-12T04:39:47;101587.54;;;18.16;68.94
61488;BME280;47351;53.326;-6.298;2022-07-12T04:42:18;101585.77;;;18.17;68.84
61488;BME280;47351;53.326;-6.298;2022-07-12T04:44:53;101587.05;;;18.17;68.93
61488;BME280;47351;53.326;-6.298;2022-07-12T04:47:47;101591.60;;;18.17;69.06
61488;BME280;47351;53.326;-6.298;2022-07-12T04:50:18;101596.31;;;18.18;69.16
61488;BME280;47351;53.326;-6.298;2022-07-12T04:52:50;101599.20;;;18.18;69.37
61488;BME280;47351;53.326;-6.298;2022-07-12T04:55:25;101597.44;;;18.18;69.29
61488;BME280;47351;53.326;-6.298;2022-07-12T04:57:59;101595.98;;;18.18;69.50
61488;BME280;47351;53.326;-6.298;2022-07-12T05:00:53;101591.64;;;18.17;69.50
61488;BME280;47351;53.326;-6.298;2022-07-12T05:03:27;101588.48;;;18.16;69.49
61488;BME280;47351;53.326;-6.298;2022-07-12T05:06:05;101588.35;;;18.15;69.50
61488;BME280;47351;53.326;-6.298;2022-07-12T05:08:42;101588.42;;;18.16;69.60
61488;BME280;47351;53.326;-6.298;2022-07-12T05:11:21;101594.67;;;18.17;69.66
61488;BME280;47351;53.326;-6.298;2022-07-12T05:14:04;101599.98;;;18.18;69.68
61488;BME280;47351;53.326;-6.298;2022-07-12T05:16:35;101598.19;;;18.18;69.54
61488;BME280;47351;53.326;-6.298;2022-07-12T05:19:07;101602.83;;;18.18;69.59
61488;BME280;47351;53.326;-6.298;2022-07-12T05:21:46;101606.71;;;18.19;69.67
61488;BME280;47351;53.326;-6.298;2022-07-12T05:24:57;101611.95;;;18.20;69.41
61488;BME280;47351;53.326;-6.298;2022-07-12T05:27:31;101610.98;;;18.22;69.48
61488;BME280;47351;53.326;-6.298;2022-07-12T05:30:03;101611.13;;;18.24;69.35
61488;BME280;47351;53.326;-6.298;2022-07-12T05:32:35;101615.55;;;18.26;69.18
61488;BME280;47351;53.326;-6.298;2022-07-12T05:35:08;101617.64;;;18.30;69.23
61488;BME280;47351;53.326;-6.298;2022-07-12T05:37:43;101621.11;;;18.34;69.04
61488;BME280;47351;53.326;-6.298;2022-07-12T05:40:18;101622.64;;;18.36;68.99
61488;BME280;47351;53.326;-6.298;2022-07-12T05:42:58;101622.29;;;18.41;68.79
61488;BME280;47351;53.326;-6.298;2022-07-12T05:45:30;101621.57;;;18.42;68.62
61488;BME280;47351;53.326;-6.298;2022-07-12T05:48:05;101617.94;;;18.48;68.31
61488;BME280;47351;53.326;-6.298;2022-07-12T05:50:41;101617.90;;;18.56;68.16
61488;BME280;47351;53.326;-6.298;2022-07-12T05:53:16;101624.85;;;18.64;67.89
61488;BME280;47351;53.326;-6.298;2022-07-12T05:56:15;101631.74;;;18.73;67.57
61488;BME280;47351;53.326;-6.298;2022-07-12T05:58:50;101631.23;;;18.80;67.52
61488;BME280;47351;53.326;-6.298;2022-07-12T06:01:22;101633.55;;;18.86;67.31
61488;BME280;47351;53.326;-6.298;2022-07-12T06:04:07;101638.69;;;18.93;66.90
61488;BME280;47351;53.326;-6.298;2022-07-12T06:06:44;101641.63;;;18.98;66.77
61488;BME280;47351;53.326;-6.298;2022-07-12T06:09:24;101642.55;;;19.03;66.69
61488;BME280;47351;53.326;-6.298;2022-07-12T06:12:02;101651.45;;;19.04;66.57
61488;BME280;47351;53.326;-6.298;2022-07-12T06:14:46;101656.83;;;19.03;66.71
61488;BME280;47351;53.326;-6.298;2022-07-12T06:17:42;101667.72;;;19.01;67.22
61488;BME280;47351;53.326;-6.298;2022-07-12T06:20:24;101675.48;;;18.97;67.14
61488;BME280;47351;53.326;-6.298;2022-07-12T06:22:56;101673.67;;;18.91;67.18
61488;BME280;47351;53.326;-6.298;2022-07-12T06:25:28;101680.10;;;18.87;67.23
61488;BME280;47351;53.326;-6.298;2022-07-12T06:28:13;101685.65;;;18.83;67.20
61488;BME280;47351;53.326;-6.298;2022-07-12T06:30:44;101687.16;;;18.78;67.24
61488;BME280;47351;53.326;-6.298;2022-07-12T06:33:19;101686.91;;;18.70;67.28
61488;BME280;47351;53.326;-6.298;2022-07-12T06:35:59;101679.70;;;18.62;67.29
61488;BME280;47351;53.326;-6.298;2022-07-12T06:38:38;101676.63;;;18.55;67.52
61488;BME280;47351;53.326;-6.298;2022-07-12T06:41:25;101674.19;;;18.47;67.87
61488;BME280;47351;53.326;-6.298;2022-07-12T06:44:00;101670.92;;;18.41;68.19
61488;BME280;47351;53.326;-6.298;2022-07-12T06:46:34;101668.55;;;18.35;68.45
61488;BME280;47351;53.326;-6.298;2022-07-12T06:49:11;101667.15;;;18.30;68.54
61488;BME280;47351;53.326;-6.298;2022-07-12T06:51:43;101672.27;;;18.26;68.53
61488;BME280;47351;53.326;-6.298;2022-07-12T06:54:18;101666.46;;;18.24;68.74
61488;BME280;47351;53.326;-6.298;2022-07-12T06:56:58;101669.55;;;18.24;68.79
61488;BME280;47351;53.326;-6.298;2022-07-12T06:59:40;101668.05;;;18.23;68.90
61488;BME280;47351;53.326;-6.298;2022-07-12T07:02:17;101674.30;;;18.23;69.10
61488;BME280;47351;53.326;-6.298;2022-07-12T07:04:58;101676.29;;;18.25;69.41
61488;BME280;47351;53.326;-6.298;2022-07-12T07:07:32;101666.56;;;18.25;69.38
61488;BME280;47351;53.326;-6.298;2022-07-12T07:10:35;101664.63;;;18.26;69.22
61488;BME280;47351;53.326;-6.298;2022-07-12T07:13:16;101663.50;;;18.29;69.24
61488;BME280;47351;53.326;-6.298;2022-07-12T07:16:08;101656.34;;;18.36;69.17
61488;BME280;47351;53.326;-6.298;2022-07-12T07:18:42;101659.25;;;18.40;69.14
61488;BME280;47351;53.326;-6.298;2022-07-12T07:21:20;101664.02;;;18.44;68.86
61488;BME280;47351;53.326;-6.298;2022-07-12T07:23:51;101663.07;;;18.46;68.62
61488;BME280;47351;53.326;-6.298;2022-07-12T07:26:33;101664.87;;;18.46;68.40
61488;BME280;47351;53.326;-6.298;2022-07-12T07:29:21;101665.28;;;18.45;68.35
61488;BME280;47351;53.326;-6.298;2022-07-12T07:32:22;101661.86;;;18.48;68.44
61488;BME280;47351;53.326;-6.298;2022-07-12T07:34:56;101658.70;;;18.52;68.57
61488;BME280;47351;53.326;-6.298;2022-07-12T07:37:38;101661.11;;;18.51;68.31
61488;BME280;47351;53.326;-6.298;2022-07-12T07:40:11;101658.23;;;18.48;68.37
61488;BME280;47351;53.326;-6.298;2022-07-12T07:42:51;101658.27;;;18.49;68.34
61488;BME280;47351;53.326;-6.298;2022-07-12T07:45:44;101654.52;;;18.55;68.32
61488;BME280;47351;53.326;-6.298;2022-07-12T07:48:16;101656.82;;;18.57;68.53
61488;BME280;47351;53.326;-6.298;2022-07-12T07:50:54;101659.05;;;18.55;68.71
61488;BME280;47351;53.326;-6.298;2022-07-12T07:53:26;101658.79;;;18.50;68.61
61488;BME280;47351;53.326;-6.298;2022-07-12T07:56:00;101658.63;;;18.46;68.71
61488;BME280;47351;53.326;-6.298;2022-07-12T07:58:39;101654.20;;;18.49;68.68
61488;BME280;47351;53.326;-6.298;2022-07-12T08:01:13;101659.95;;;18.53;68.64
61488;BME280;47351;53.326;-6.298;2022-07-12T08:03:45;101664.22;;;18.62;68.97
61488;BME280;47351;53.326;-6.298;2022-07-12T08:06:19;101659.53;;;18.67;68.75
61488;BME280;47351;53.326;-6.298;2022-07-12T08:08:51;101663.11;;;18.74;68.63
61488;BME280;47351;53.326;-6.298;2022-07-12T08:11:42;101666.30;;;18.80;68.49
61488;BME280;47351;53.326;-6.298;2022-07-12T08:14:26;101673.46;;;18.87;68.38
61488;BME280;47351;53.326;-6.298;2022-07-12T08:17:05;101672.58;;;18.95;68.38
61488;BME280;47351;53.326;-6.298;2022-07-12T08:19:40;101671.70;;;19.03;68.27
61488;BME280;47351;53.326;-6.298;2022-07-12T08:22:11;101672.66;;;19.09;68.27
61488;BME280;47351;53.326;-6.298;2022-07-12T08:24:43;101676.59;;;19.17;68.43
61488;BME280;47351;53.326;-6.298;2022-07-12T08:27:22;101681.23;;;19.22;68.14
61488;BME280;47351;53.326;-6.298;2022-07-12T08:29:56;101684.44;;;19.21;67.90
61488;BME280;47351;53.326;-6.298;2022-07-12T08:32:59;101684.48;;;19.20;67.96
61488;BME280;47351;53.326;-6.298;2022-07-12T08:35:40;101693.08;;;19.23;68.06
61488;BME280;47351;53.326;-6.298;2022-07-12T08:38:11;101695.34;;;19.25;67.91
61488;BME280;47351;53.326;-6.298;2022-07-12T08:40:45;101691.49;;;19.28;67.81
61488;BME280;47351;53.326;-6.298;2022-07-12T08:43:29;101691.77;;;19.30;67.84
61488;BME280;47351;53.326;-6.298;2022-07-12T08:46:13;101698.64;;;19.32;67.69
61488;BME280;47351;53.326;-6.298;2022-07-12T08:48:56;101699.69;;;19.32;67.68
61488;BME280;47351;53.326;-6.298;2022-07-12T08:51:28;101702.86;;;19.33;67.54
61488;BME280;47351;53.326;-6.298;2022-07-12T08:54:13;101697.50;;;19.35;67.45
61488;BME280;47351;53.326;-6.298;2022-07-12T08:56:46;101694.45;;;19.37;67.29
61488;BME280;47351;53.326;-6.298;2022-07-12T08:59:18;101693.00;;;19.43;67.18
61488;BME280;47351;53.326;-6.298;2022-07-12T09:01:54;101699.72;;;19.51;67.08
61488;BME280;47351;53.326;-6.298;2022-07-12T09:04:29;101706.23;;;19.58;66.72
61488;BME280;47351;53.326;-6.298;2022-07-12T09:07:14;101705.48;;;19.64;66.56
61488;BME280;47351;53.326;-6.298;2022-07-12T09:10:11;101709.77;;;19.70;66.14
61488;BME280;47351;53.326;-6.298;2022-07-12T09:12:50;101712.70;;;19.76;66.09
61488;BME280;47351;53.326;-6.298;2022-07-12T09:15:27;101709.45;;;19.81;65.98
61488;BME280;47351;53.326;-6.298;2022-07-12T09:18:00;101703.71;;;19.84;65.49
61488;BME280;47351;53.326;-6.298;2022-07-12T09:20:33;101703.16;;;19.86;65.24
61488;BME280;47351;53.326;-6.298;2022-07-12T09:23:16;101698.39;;;19.96;65.24
61488;BME280;47351;53.326;-6.298;2022-07-12T09:25:57;101697.59;;;20.06;64.67
61488;BME280;47351;53.326;-6.298;2022-07-12T09:28:31;101692.56;;;20.10;64.28
61488;BME280;47351;53.326;-6.298;2022-07-12T09:31:03;101697.92;;;20.11;64.17
61488;BME280;47351;53.326;-6.298;2022-07-12T09:33:34;101700.75;;;20.04;63.89
61488;BME280;47351;53.326;-6.298;2022-07-12T09:36:26;101708.18;;;19.97;64.11
61488;BME280;47351;53.326;-6.298;2022-07-12T09:38:58;101712.50;;;19.90;64.26
61488;BME280;47351;53.326;-6.298;2022-07-12T09:41:31;101708.27;;;19.88;64.47
61488;BME280;47351;53.326;-6.298;2022-07-12T09:44:07;101709.67;;;19.87;64.76
61488;BME280;47351;53.326;-6.298;2022-07-12T09:46:39;101711.95;;;19.88;64.87
61488;BME280;47351;53.326;-6.298;2022-07-12T09:49:15;101715.63;;;19.93;64.88
61488;BME280;47351;53.326;-6.298;2022-07-12T09:52:08;101712.65;;;19.97;64.71
61488;BME280;47351;53.326;-6.298;2022-07-12T09:54:42;101714.61;;;20.06;64.70
61488;BME280;47351;53.326;-6.298;2022-07-12T09:57:21;101706.09;;;20.18;64.72
61488;BME280;47351;53.326;-6.298;2022-07-12T09:59:54;101713.73;;;20.34;64.51
61488;BME280;47351;53.326;-6.298;2022-07-12T10:02:26;101711.31;;;20.50;64.16
61488;BME280;47351;53.326;-6.298;2022-07-12T10:05:00;101716.04;;;20.66;63.93
61488;BME280;47351;53.326;-6.298;2022-07-12T10:07:38;101718.82;;;20.86;63.74
61488;BME280;47351;53.326;-6.298;2022-07-12T10:10:10;101714.58;;;21.12;63.32
61488;BME280;47351;53.326;-6.298;2022-07-12T10:12:42;101716.55;;;21.44;62.79
61488;BME280;47351;53.326;-6.298;2022-07-12T10:15:19;101720.65;;;21.74;62.47
61488;BME280;47351;53.326;-6.298;2022-07-12T10:17:55;101718.73;;;21.96;61.30
61488;BME280;47351;53.326;-6.298;2022-07-12T10:20:29;101719.55;;;22.12;60.83
61488;BME280;47351;53.326;-6.298;2022-07-12T10:26:00;101702.48;;;22.28;60.02
61488;BME280;47351;53.326;-6.298;2022-07-12T10:31:38;101710.08;;;22.35;59.13
61488;BME280;47351;53.326;-6.298;2022-07-12T10:34:13;101704.27;;;22.61;58.65
61488;BME280;47351;53.326;-6.298;2022-07-12T10:40:13;101698.02;;;23.67;56.54
61488;BME280;47351;53.326;-6.298;2022-07-12T10:45:44;101701.38;;;24.63;54.80
61488;BME280;47351;53.326;-6.298;2022-07-12T10:48:23;101703.02;;;24.59;53.94
61488;BME280;47351;53.326;-6.298;2022-07-12T10:50:56;101701.70;;;24.50;54.15
61488;BME280;47351;53.326;-6.298;2022-07-12T10:53:33;101695.27;;;24.41;53.74
61488;BME280;47351;53.326;-6.298;2022-07-12T10:56:16;101692.85;;;24.37;53.66
61488;BME280;47351;53.326;-6.298;2022-07-12T10:58:56;101698.47;;;24.46;53.59
61488;BME280;47351;53.326;-6.298;2022-07-12T11:01:29;101693.92;;;24.54;53.00
61488;BME280;47351;53.326;-6.298;2022-07-12T11:04:07;101694.58;;;24.64;53.13
61488;BME280;47351;53.326;-6.298;2022-07-12T11:06:40;101701.67;;;24.78;53.04
61488;BME280;47351;53.326;-6.298;2022-07-12T11:09:15;101702.94;;;24.77;52.52
61488;BME280;47351;53.326;-6.298;2022-07-12T11:11:48;101704.50;;;24.74;52.18
61488;BME280;47351;53.326;-6.298;2022-07-12T11:14:24;101698.34;;;24.69;51.58
61488;BME280;47351;53.326;-6.298;2022-07-12T11:16:56;101702.77;;;24.66;51.62
61488;BME280;47351;53.326;-6.298;2022-07-12T11:19:29;101701.41;;;24.63;51.39
61488;BME280;47351;53.326;-6.298;2022-07-12T11:22:01;101698.01;;;24.66;50.93
61488;BME280;47351;53.326;-6.298;2022-07-12T11:24:33;101697.66;;;24.99;50.34
61488;BME280;47351;53.326;-6.298;2022-07-12T11:27:07;101691.87;;;25.65;49.09
61488;BME280;47351;53.326;-6.298;2022-07-12T11:29:57;101689.34;;;27.06;47.31
61488;BME280;47351;53.326;-6.298;2022-07-12T11:32:39;101687.59;;;27.80;44.97
61488;BME280;47351;53.326;-6.298;2022-07-12T11:35:21;101677.75;;;29.55;43.56
61488;BME280;47351;53.326;-6.298;2022-07-12T11:37:54;101677.82;;;31.06;41.89
61488;BME280;47351;53.326;-6.298;2022-07-12T11:40:28;101684.83;;;31.80;39.99
61488;BME280;47351;53.326;-6.298;2022-07-12T11:43:01;101687.07;;;31.48;39.78
61488;BME280;47351;53.326;-6.298;2022-07-12T11:45:33;101678.89;;;30.78;39.96
61488;BME280;47351;53.326;-6.298;2022-07-12T11:48:05;101681.50;;;30.40;39.41
61488;BME280;47351;53.326;-6.298;2022-07-12T11:50:37;101690.16;;;29.93;39.45
61488;BME280;47351;53.326;-6.298;2022-07-12T11:53:16;101686.79;;;29.35;39.95
61488;BME280;47351;53.326;-6.298;2022-07-12T11:55:50;101688.31;;;28.62;40.16
61488;BME280;47351;53.326;-6.298;2022-07-12T11:58:22;101693.64;;;27.92;40.90
61488;BME280;47351;53.326;-6.298;2022-07-12T12:00:55;101689.59;;;27.44;41.97
61488;BME280;47351;53.326;-6.298;2022-07-12T12:03:27;101695.53;;;27.17;42.54
61488;BME280;47351;53.326;-6.298;2022-07-12T12:05:58;101697.08;;;27.18;42.77
61488;BME280;47351;53.326;-6.298;2022-07-12T12:08:30;101702.76;;;27.26;42.75
61488;BME280;47351;53.326;-6.298;2022-07-12T12:11:01;101702.52;;;27.38;42.18
61488;BME280;47351;53.326;-6.298;2022-07-12T12:13:33;101701.10;;;27.74;41.94
61488;BME280;47351;53.326;-6.298;2022-07-12T12:16:06;101703.06;;;27.82;41.83
61488;BME280;47351;53.326;-6.298;2022-07-12T12:18:39;101700.52;;;27.88;41.85
61488;BME280;47351;53.326;-6.298;2022-07-12T12:21:12;101696.02;;;27.95;42.03
61488;BME280;47351;53.326;-6.298;2022-07-12T12:23:44;101695.19;;;28.53;41.44
61488;BME280;47351;53.326;-6.298;2022-07-12T12:26:17;101702.47;;;29.36;40.02
61488;BME280;47351;53.326;-6.298;2022-07-12T12:28:52;101698.89;;;28.94;40.01
61488;BME280;47351;53.326;-6.298;2022-07-12T12:31:24;101692.93;;;28.48;40.73
61488;BME280;47351;53.326;-6.298;2022-07-12T12:33:56;101696.72;;;28.01;41.02
61488;BME280;47351;53.326;-6.298;2022-07-12T12:36:29;101697.34;;;27.59;41.92
61488;BME280;47351;53.326;-6.298;2022-07-12T12:39:01;101695.79;;;27.37;42.26
61488;BME280;47351;53.326;-6.298;2022-07-12T12:41:40;101692.46;;;27.32;42.66
61488;BME280;47351;53.326;-6.298;2022-07-12T12:44:13;101693.72;;;27.21;42.43
61488;BME280;47351;53.326;-6.298;2022-07-12T12:46:49;101696.21;;;27.25;43.04
61488;BME280;47351;53.326;-6.298;2022-07-12T12:49:46;101697.45;;;27.56;42.69
61488;BME280;47351;53.326;-6.298;2022-07-12T12:52:29;101698.98;;;27.48;42.82
61488;BME280;47351;53.326;-6.298;2022-07-12T12:55:01;101700.21;;;27.56;42.90
61488;BME280;47351;53.326;-6.298;2022-07-12T12:57:32;101695.90;;;27.39;43.04
61488;BME280;47351;53.326;-6.298;2022-07-12T13:00:05;101697.39;;;27.09;43.27
61488;BME280;47351;53.326;-6.298;2022-07-12T13:02:37;101693.61;;;26.79;43.92
61488;BME280;47351;53.326;-6.298;2022-07-12T13:05:09;101693.77;;;26.63;44.29
61488;BME280;47351;53.326;-6.298;2022-07-12T13:07:40;101692.98;;;26.49;44.84
61488;BME280;47351;53.326;-6.298;2022-07-12T13:10:11;101691.51;;;26.48;45.12
61488;BME280;47351;53.326;-6.298;2022-07-12T13:12:43;101686.11;;;26.57;45.06
61488;BME280;47351;53.326;-6.298;2022-07-12T13:15:15;101686.13;;;26.67;45.12
61488;BME280;47351;53.326;-6.298;2022-07-12T13:17:47;101689.38;;;26.60;44.83
61488;BME280;47351;53.326;-6.298;2022-07-12T13:20:19;101691.06;;;26.32;44.91
61488;BME280;47351;53.326;-6.298;2022-07-12T13:22:51;101688.77;;;26.08;45.29
61488;BME280;47351;53.326;-6.298;2022-07-12T13:25:23;101685.34;;;25.87;45.76
61488;BME280;47351;53.326;-6.298;2022-07-12T13:27:55;101684.10;;;25.76;46.15
61488;BME280;47351;53.326;-6.298;2022-07-12T13:30:26;101684.70;;;25.71;46.52
61488;BME280;47351;53.326;-6.298;2022-07-12T13:32:58;101679.67;;;25.66;46.77
61488;BME280;47351;53.326;-6.298;2022-07-12T13:35:29;101671.76;;;25.67;46.93
61488;BME280;47351;53.326;-6.298;2022-07-12T13:38:00;101663.69;;;25.78;46.90